createdAt,value
2023-02-16T00:01:25.473Z,38.33
2023-02-16T00:03:56.586Z,40.90
2023-02-16T00:06:25.998Z,37.97
2023-02-16T00:08:57.199Z,37.07
2023-02-16T00:11:48.976Z,38.53
2023-02-16T00:14:18.052Z,36.50
2023-02-16T00:16:47.058Z,38.90
2023-02-16T00:19:22.428Z,39.80
2023-02-16T00:21:53.475Z,40.13
2023-02-16T00:24:22.334Z,38.37
2023-02-16T00:26:51.337Z,37.10
2023-02-16T00:29:26.067Z,38.47
2023-02-16T00:31:56.014Z,37.93
2023-02-16T00:34:32.481Z,35.30
2023-02-16T00:37:03.533Z,37.87
2023-02-16T00:39:32.138Z,42.00
2023-02-16T00:42:04.113Z,38.90
2023-02-16T00:44:36.007Z,37.70
2023-02-16T00:47:16.181Z,36.33
2023-02-16T00:49:46.108Z,38.13
2023-02-16T00:52:30.933Z,38.00
2023-02-16T00:55:00.768Z,38.63
2023-02-16T00:57:35.162Z,39.60
2023-02-16T01:00:08.524Z,42.93
2023-02-16T01:02:37.719Z,40.53
2023-02-16T01:05:08.387Z,41.13
2023-02-16T01:07:54.520Z,39.53
2023-02-16T01:10:40.324Z,41.87
2023-02-16T01:13:10.300Z,41.90
2023-02-16T01:15:40.030Z,38.77
2023-02-16T01:18:09.796Z,36.70
2023-02-16T01:20:39.622Z,39.57
2023-02-16T01:23:11.092Z,39.60
2023-02-16T01:25:43.431Z,41.07
2023-02-16T01:28:20.586Z,41.10
2023-02-16T01:30:49.681Z,42.60
2023-02-16T01:33:18.518Z,38.70
2023-02-16T01:35:49.471Z,42.17
2023-02-16T01:38:21.275Z,41.13
2023-02-16T01:40:56.358Z,41.43
2023-02-16T01:43:30.012Z,41.93
2023-02-16T01:46:04.557Z,42.13
2023-02-16T01:48:33.789Z,41.63
2023-02-16T01:51:13.145Z,41.80
2023-02-16T01:53:47.198Z,42.30
2023-02-16T01:56:22.632Z,40.03
2023-02-16T01:58:55.520Z,41.23
2023-02-16T02:01:43.827Z,43.80
2023-02-16T02:04:44.381Z,43.67
2023-02-16T02:07:20.787Z,42.47
2023-02-16T02:09:58.998Z,43.47
2023-02-16T02:12:33.874Z,42.00
2023-02-16T02:15:03.075Z,40.27
2023-02-16T02:17:31.737Z,41.07
2023-02-16T02:20:10.958Z,39.10
2023-02-16T02:23:33.944Z,42.30
2023-02-16T02:26:46.961Z,39.27
2023-02-16T02:29:54.778Z,38.67
2023-02-16T02:32:34.078Z,38.03
2023-02-16T02:35:21.815Z,36.93
2023-02-16T02:37:57.575Z,36.53
2023-02-16T02:40:40.910Z,35.47
2023-02-16T02:43:17.922Z,37.07
2023-02-16T02:45:53.434Z,36.27
2023-02-16T02:48:22.254Z,36.00
2023-02-16T02:51:12.377Z,34.90
2023-02-16T02:53:46.423Z,33.77
2023-02-16T02:56:35.857Z,34.90
2023-02-16T02:59:27.062Z,31.93
2023-02-16T03:02:02.187Z,32.60
2023-02-16T03:04:34.612Z,31.97
2023-02-16T03:07:05.319Z,31.97
2023-02-16T03:09:34.329Z,32.80
2023-02-16T03:12:29.214Z,31.03
2023-02-16T03:15:02.508Z,29.60
2023-02-16T03:17:56.938Z,31.40
2023-02-16T03:20:43.504Z,32.20
2023-02-16T03:23:30.697Z,29.57
2023-02-16T03:26:17.126Z,29.07
2023-02-16T03:29:03.909Z,27.73
2023-02-16T03:31:35.701Z,28.97
2023-02-16T03:34:06.807Z,26.27
2023-02-16T03:36:38.222Z,26.17
2023-02-16T03:39:07.557Z,26.83
2023-02-16T03:41:41.042Z,25.83
2023-02-16T03:44:09.566Z,26.40
2023-02-16T03:46:38.303Z,28.93
2023-02-16T03:49:08.577Z,27.53
2023-02-16T03:51:37.369Z,27.37
2023-02-16T03:54:05.848Z,25.97
2023-02-16T03:56:34.704Z,24.60
2023-02-16T03:59:03.412Z,23.33
2023-02-16T04:01:32.225Z,25.83
2023-02-16T04:04:00.743Z,23.53
2023-02-16T04:06:30.925Z,23.77
2023-02-16T04:08:59.522Z,23.63
2023-02-16T04:11:45.412Z,23.13
2023-02-16T04:14:14.154Z,23.50
2023-02-16T04:16:46.147Z,23.33
2023-02-16T04:19:14.738Z,21.60
2023-02-16T04:21:44.829Z,25.43
2023-02-16T04:24:13.324Z,25.23
2023-02-16T04:26:42.135Z,23.53
2023-02-16T04:29:10.569Z,22.87
2023-02-16T04:31:39.528Z,23.70
2023-02-16T04:34:08.381Z,23.90
2023-02-16T04:36:37.140Z,24.30
2023-02-16T04:39:07.140Z,22.73
2023-02-16T04:41:35.911Z,24.57
2023-02-16T04:44:04.572Z,23.30
2023-02-16T04:46:33.299Z,23.40
2023-02-16T04:49:01.834Z,23.10
2023-02-16T04:51:30.638Z,24.33
2023-02-16T04:53:59.097Z,24.83
2023-02-16T04:56:29.370Z,23.77
2023-02-16T04:58:58.258Z,24.63
2023-02-16T05:01:30.026Z,26.53
2023-02-16T05:03:58.928Z,22.67
2023-02-16T05:06:27.648Z,22.83
2023-02-16T05:08:56.160Z,23.97
2023-02-16T05:11:42.329Z,25.83
2023-02-16T05:14:37.613Z,24.77
2023-02-16T05:17:06.867Z,22.23
2023-02-16T05:19:35.586Z,24.43
2023-02-16T05:22:04.698Z,23.20
2023-02-16T05:24:34.651Z,23.23
2023-02-16T05:27:03.938Z,22.63
2023-02-16T05:29:34.231Z,23.20
2023-02-16T05:32:04.851Z,23.13
2023-02-16T05:34:33.642Z,23.17
2023-02-16T05:37:02.473Z,25.60
2023-02-16T05:39:31.183Z,25.03
2023-02-16T05:42:00.178Z,24.57
2023-02-16T05:44:29.048Z,24.27
2023-02-16T05:46:59.304Z,25.60
2023-02-16T05:49:27.877Z,23.93
2023-02-16T05:51:57.031Z,23.00
2023-02-16T05:54:25.599Z,23.43
2023-02-16T05:56:54.701Z,22.00
2023-02-16T05:59:23.304Z,22.13
2023-02-16T06:01:52.678Z,23.33
2023-02-16T06:04:22.887Z,22.83
2023-02-16T06:06:51.720Z,23.57
2023-02-16T06:09:20.143Z,23.03
2023-02-16T06:11:48.897Z,22.33
2023-02-16T06:14:19.572Z,22.90
2023-02-16T06:16:51.464Z,22.60
2023-02-16T06:19:21.905Z,22.90
2023-02-16T06:21:50.730Z,23.20
2023-02-16T06:24:19.535Z,22.60
2023-02-16T06:26:48.283Z,21.90
2023-02-16T06:29:16.787Z,23.60
2023-02-16T06:31:45.632Z,25.97
2023-02-16T06:34:14.357Z,23.90
2023-02-16T06:36:44.450Z,23.97
2023-02-16T06:39:12.946Z,24.87
2023-02-16T06:41:42.122Z,24.77
2023-02-16T06:44:12.446Z,25.87
2023-02-16T06:46:41.940Z,25.37
2023-02-16T06:49:13.584Z,24.90
2023-02-16T06:51:42.457Z,25.03
2023-02-16T06:54:12.855Z,25.53
2023-02-16T06:56:42.053Z,24.17
2023-02-16T06:59:12.444Z,23.87
2023-02-16T07:01:45.446Z,23.57
2023-02-16T07:04:14.219Z,25.13
2023-02-16T07:06:42.993Z,22.77
2023-02-16T07:09:13.111Z,23.73
2023-02-16T07:11:42.102Z,25.30
2023-02-16T07:14:10.639Z,24.97
2023-02-16T07:16:39.449Z,26.40
2023-02-16T07:19:08.015Z,25.73
2023-02-16T07:21:36.775Z,25.73
2023-02-16T07:24:05.826Z,28.10
2023-02-16T07:26:38.679Z,25.50
2023-02-16T07:29:07.176Z,25.30
2023-02-16T07:31:36.004Z,27.33
2023-02-16T07:34:04.508Z,24.83
2023-02-16T07:36:33.257Z,25.43
2023-02-16T07:39:01.723Z,24.90
2023-02-16T07:41:30.712Z,24.73
2023-02-16T07:44:03.021Z,24.97
2023-02-16T07:46:33.359Z,25.30
2023-02-16T07:49:02.962Z,22.23
2023-02-16T07:51:33.229Z,23.60
2023-02-16T07:54:02.147Z,23.77
2023-02-16T07:56:33.655Z,22.43
2023-02-16T07:59:04.578Z,24.53
2023-02-16T08:01:34.288Z,23.10
2023-02-16T08:04:02.847Z,21.90
2023-02-16T08:06:31.546Z,22.57
2023-02-16T08:09:00.031Z,21.40
2023-02-16T08:11:28.768Z,20.37
2023-02-16T08:13:59.458Z,22.20
2023-02-16T08:16:30.740Z,20.63
2023-02-16T08:19:01.453Z,20.87
2023-02-16T08:21:32.253Z,19.80
2023-02-16T08:24:02.612Z,20.53
2023-02-16T08:26:34.570Z,20.27
2023-02-16T08:29:03.085Z,20.10
2023-02-16T08:31:36.734Z,17.70
2023-02-16T08:34:06.231Z,21.20
2023-02-16T08:36:36.820Z,21.23
2023-02-16T08:39:07.188Z,22.27
2023-02-16T08:41:38.058Z,20.83
2023-02-16T08:44:08.814Z,20.50
2023-02-16T08:46:41.117Z,18.90
2023-02-16T08:49:10.340Z,20.13
2023-02-16T08:51:42.397Z,19.70
2023-02-16T08:54:16.911Z,25.43
2023-02-16T08:56:47.871Z,21.33
2023-02-16T08:59:17.889Z,18.90
2023-02-16T09:01:48.485Z,19.03
2023-02-16T09:04:17.899Z,18.50
2023-02-16T09:06:48.396Z,20.60
2023-02-16T09:09:17.921Z,20.87
2023-02-16T09:11:47.086Z,22.13
2023-02-16T09:14:16.273Z,20.33
2023-02-16T09:16:46.543Z,18.67
2023-02-16T09:19:18.936Z,20.63
2023-02-16T09:21:48.658Z,18.17
2023-02-16T09:24:17.198Z,19.90
2023-02-16T09:26:46.176Z,21.00
2023-02-16T09:29:15.411Z,20.70
2023-02-16T09:31:44.989Z,18.33
2023-02-16T09:34:20.915Z,20.23
2023-02-16T09:36:50.128Z,17.73
2023-02-16T09:39:19.177Z,20.60
2023-02-16T09:42:03.232Z,18.00
2023-02-16T09:44:43.363Z,23.33
2023-02-16T09:47:22.062Z,21.73
2023-02-16T09:49:53.876Z,18.57
2023-02-16T09:52:29.544Z,19.57
2023-02-16T09:55:00.565Z,19.33
2023-02-16T09:57:42.640Z,20.33
2023-02-16T10:00:23.322Z,19.07
2023-02-16T10:02:57.379Z,74.10
2023-02-16T10:05:33.549Z,68.30
2023-02-16T10:08:07.588Z,75.70
2023-02-16T10:10:45.280Z,69.07
2023-02-16T10:13:23.824Z,70.57
2023-02-16T10:15:54.241Z,70.37
2023-02-16T10:18:29.448Z,76.33
2023-02-16T10:21:03.674Z,70.97
2023-02-16T10:23:46.252Z,70.53
2023-02-16T10:26:24.560Z,71.60
2023-02-16T10:28:56.190Z,73.03
2023-02-16T10:31:31.226Z,72.30
2023-02-16T10:34:17.788Z,76.40
2023-02-16T10:37:24.861Z,73.37
2023-02-16T10:40:03.919Z,75.17
2023-02-16T10:42:38.456Z,79.07
2023-02-16T10:45:21.566Z,73.30
2023-02-16T10:47:50.045Z,72.17
2023-02-16T10:50:25.417Z,74.23
2023-02-16T10:52:59.980Z,72.97
2023-02-16T10:55:28.866Z,74.17
2023-02-16T10:58:00.149Z,73.73
2023-02-16T11:00:44.227Z,72.90
2023-02-16T11:03:15.509Z,88.60
2023-02-16T11:05:44.827Z,88.28
2023-02-16T11:08:14.658Z,25.07
2023-02-16T11:10:49.081Z,71.47
2023-02-16T11:13:33.948Z,73.20
2023-02-16T11:16:07.068Z,83.30
2023-02-16T11:18:39.154Z,90.93
2023-02-16T11:21:09.172Z,86.20
2023-02-16T11:23:40.616Z,71.90
2023-02-16T11:26:25.040Z,18.33
2023-02-16T11:28:54.322Z,18.77
2023-02-16T11:31:28.714Z,17.70
2023-02-16T11:34:00.309Z,19.30
2023-02-16T11:36:33.862Z,19.37
2023-02-16T11:39:08.840Z,19.43
2023-02-16T11:41:39.103Z,17.23
2023-02-16T11:44:25.741Z,18.97
2023-02-16T11:46:56.538Z,19.70
2023-02-16T11:49:33.408Z,20.07
2023-02-16T11:52:18.492Z,17.87
2023-02-16T11:54:52.021Z,20.27
2023-02-16T11:57:26.980Z,20.90
2023-02-16T11:59:56.932Z,20.57
2023-02-16T12:02:58.898Z,19.23
2023-02-16T12:05:36.764Z,20.17
2023-02-16T12:08:32.452Z,19.00
2023-02-16T12:11:25.399Z,18.40
2023-02-16T12:14:05.243Z,22.63
2023-02-16T12:16:42.274Z,21.37
2023-02-16T12:19:24.218Z,19.90
2023-02-16T12:21:56.046Z,21.83
2023-02-16T12:24:41.480Z,21.77
2023-02-16T12:27:19.576Z,19.07
2023-02-16T12:30:01.984Z,22.17
2023-02-16T12:32:50.344Z,24.40
2023-02-16T12:35:35.029Z,23.43
2023-02-16T12:38:12.976Z,21.00
2023-02-16T12:40:52.027Z,24.23
2023-02-16T12:43:35.856Z,24.40
2023-02-16T12:46:10.514Z,25.03
2023-02-16T12:48:46.740Z,23.60
2023-02-16T12:51:20.286Z,25.23
2023-02-16T12:53:55.080Z,24.93
2023-02-16T12:56:28.109Z,24.27
2023-02-16T12:59:14.270Z,26.30
2023-02-16T13:01:45.203Z,28.33
2023-02-16T13:04:23.153Z,23.80
2023-02-16T13:06:59.004Z,27.57
2023-02-16T13:09:38.563Z,22.80
2023-02-16T13:12:15.957Z,23.27
2023-02-16T13:14:54.032Z,24.90
2023-02-16T13:17:32.019Z,24.30
2023-02-16T13:20:02.599Z,24.60
2023-02-16T13:23:19.417Z,24.93
2023-02-16T13:26:11.122Z,24.50
2023-02-16T13:29:02.191Z,27.07
2023-02-16T13:31:54.536Z,26.47
2023-02-16T13:35:02.506Z,25.93
2023-02-16T13:37:51.334Z,25.00
2023-02-16T13:40:59.074Z,27.47
2023-02-16T13:43:35.070Z,27.77
2023-02-16T13:46:09.052Z,26.13
2023-02-16T13:48:47.264Z,24.63
2023-02-16T13:51:20.603Z,30.30
2023-02-16T13:53:55.486Z,25.90
2023-02-16T13:56:35.185Z,28.20
2023-02-16T13:59:37.310Z,27.17
2023-02-16T14:02:13.238Z,29.97
2023-02-16T14:05:23.602Z,25.47
2023-02-16T14:08:11.242Z,28.00
2023-02-16T14:11:19.149Z,25.37
2023-02-16T14:13:50.824Z,27.30
2023-02-16T14:16:32.631Z,26.63
2023-02-16T14:19:04.842Z,30.00
2023-02-16T14:21:41.561Z,25.70
2023-02-16T14:24:14.697Z,28.07
2023-02-16T14:27:01.078Z,28.03
2023-02-16T14:29:32.973Z,29.33
2023-02-16T14:32:06.095Z,28.10
2023-02-16T14:34:40.494Z,25.30
2023-02-16T14:37:34.774Z,26.57
2023-02-16T14:40:21.233Z,27.83
2023-02-16T14:42:59.602Z,24.67
2023-02-16T14:46:20.378Z,24.93
2023-02-16T14:49:23.811Z,26.90
2023-02-16T14:52:26.425Z,23.17
2023-02-16T14:55:30.525Z,23.90
2023-02-16T14:58:07.312Z,24.40
2023-02-16T15:00:45.916Z,25.97
2023-02-16T15:03:18.676Z,24.63
2023-02-16T15:05:56.248Z,24.30
2023-02-16T15:08:35.217Z,25.40
2023-02-16T15:11:15.701Z,25.90
2023-02-16T15:13:46.385Z,27.70
2023-02-16T15:16:18.150Z,32.17
2023-02-16T15:18:50.075Z,28.97
2023-02-16T15:21:20.759Z,26.27
2023-02-16T15:23:52.516Z,26.67
2023-02-16T15:26:24.445Z,29.13
2023-02-16T15:28:56.832Z,31.37
2023-02-16T15:31:33.379Z,29.07
2023-02-16T15:34:05.804Z,28.33
2023-02-16T15:36:36.660Z,28.83
2023-02-16T15:39:07.583Z,32.27
2023-02-16T15:41:38.474Z,28.77
2023-02-16T15:44:28.355Z,28.53
2023-02-16T15:47:08.073Z,29.37
2023-02-16T15:49:38.988Z,28.20
2023-02-16T15:52:12.961Z,27.50
2023-02-16T15:54:42.440Z,28.60
2023-02-16T15:57:19.927Z,31.27
2023-02-16T15:59:51.846Z,31.37
2023-02-16T16:02:22.835Z,28.37
2023-02-16T16:04:55.526Z,30.77
2023-02-16T16:07:28.040Z,31.83
2023-02-16T16:09:58.036Z,31.47
2023-02-16T16:12:27.431Z,116.90
2023-02-16T16:14:59.641Z,96.67
2023-02-16T16:17:30.301Z,96.33
2023-02-16T16:20:19.012Z,96.53
2023-02-16T16:22:47.642Z,94.33
2023-02-16T16:25:32.676Z,102.80
2023-02-16T16:28:01.930Z,98.17
2023-02-16T16:30:34.724Z,101.60
2023-02-16T16:33:06.303Z,107.53
2023-02-16T16:35:38.422Z,96.07
2023-02-16T16:38:10.395Z,100.27
2023-02-16T16:40:41.025Z,110.57
2023-02-16T16:43:21.223Z,103.70
2023-02-16T16:45:56.179Z,103.37
2023-02-16T16:48:30.128Z,108.83
2023-02-16T16:51:11.039Z,108.37
2023-02-16T16:53:52.891Z,103.90
2023-02-16T16:56:22.998Z,103.53
2023-02-16T16:58:52.332Z,103.77
2023-02-16T17:01:22.991Z,101.47
2023-02-16T17:03:51.894Z,104.70
2023-02-16T17:06:21.332Z,111.47
2023-02-16T17:08:49.870Z,107.97
2023-02-16T17:11:25.423Z,111.93
2023-02-16T17:13:55.591Z,102.53
2023-02-16T17:16:30.526Z,102.23
2023-02-16T17:18:59.085Z,99.80
2023-02-16T17:21:27.854Z,98.57
2023-02-16T17:23:56.470Z,100.40
2023-02-16T17:26:25.521Z,108.10
2023-02-16T17:28:53.991Z,105.77
2023-02-16T17:34:06.590Z,102.53
2023-02-16T17:36:36.017Z,104.17
2023-02-16T17:39:04.545Z,97.50
2023-02-16T17:41:33.347Z,102.20
2023-02-16T17:44:04.021Z,97.80
2023-02-16T17:46:33.456Z,99.43
2023-02-16T17:49:01.996Z,102.80
2023-02-16T17:51:36.206Z,107.53
2023-02-16T17:54:06.424Z,102.00
2023-02-16T17:56:36.634Z,98.20
2023-02-16T17:59:05.098Z,100.87
2023-02-16T18:01:34.888Z,99.70
2023-02-16T18:04:04.186Z,97.53
2023-02-16T18:06:34.460Z,98.40
2023-02-16T18:09:03.200Z,98.73
2023-02-16T18:11:32.030Z,95.43
2023-02-16T18:14:00.564Z,99.03
2023-02-16T18:16:29.367Z,99.53
2023-02-16T18:18:58.344Z,99.40
2023-02-16T18:21:27.390Z,95.17
2023-02-16T18:23:57.482Z,96.30
2023-02-16T18:26:28.443Z,101.97
2023-02-16T18:28:57.042Z,99.03
2023-02-16T18:31:26.262Z,96.67
2023-02-16T18:33:54.902Z,101.50
2023-02-16T18:36:23.836Z,97.60
2023-02-16T18:38:52.523Z,103.27
2023-02-16T18:41:22.790Z,99.47
2023-02-16T18:43:51.755Z,99.50
2023-02-16T18:46:20.624Z,100.20
2023-02-16T18:48:49.768Z,92.87
2023-02-16T18:51:18.825Z,91.07
2023-02-16T18:53:47.427Z,90.33
2023-02-16T18:56:16.471Z,93.13
2023-02-16T18:58:46.688Z,91.33
2023-02-16T19:01:17.199Z,90.10
2023-02-16T19:03:46.521Z,90.07
2023-02-16T19:06:15.422Z,90.90
2023-02-16T19:08:43.913Z,88.77
2023-02-16T19:11:12.739Z,86.03
2023-02-16T19:13:41.312Z,89.60
2023-02-16T19:16:11.625Z,93.20
2023-02-16T19:18:40.167Z,87.77
2023-02-16T19:21:09.958Z,87.57
2023-02-16T19:23:38.874Z,83.60
2023-02-16T19:26:08.943Z,88.97
2023-02-16T19:28:38.023Z,88.57
2023-02-16T19:31:09.983Z,83.77
2023-02-16T19:33:40.079Z,81.97
2023-02-16T19:36:11.521Z,83.17
2023-02-16T19:38:40.967Z,83.73
2023-02-16T19:41:13.514Z,88.43
2023-02-16T19:43:42.863Z,82.77
2023-02-16T19:46:12.208Z,77.83
2023-02-16T19:48:42.887Z,76.03
2023-02-16T19:51:12.129Z,74.93
2023-02-16T19:53:42.090Z,77.30
2023-02-16T19:56:14.234Z,76.03
2023-02-16T19:58:42.952Z,73.93
2023-02-16T20:01:14.696Z,79.07
2023-02-16T20:03:44.827Z,79.10
2023-02-16T20:06:16.087Z,81.83
2023-02-16T20:08:45.260Z,79.60
2023-02-16T20:11:14.804Z,76.93
2023-02-16T20:13:44.025Z,77.50
2023-02-16T20:16:14.921Z,77.23
2023-02-16T20:18:45.453Z,80.03
2023-02-16T20:21:16.930Z,79.40
2023-02-16T20:23:46.931Z,73.80
2023-02-16T20:26:18.708Z,76.33
2023-02-16T20:28:48.196Z,70.20
2023-02-16T20:31:19.532Z,78.40
2023-02-16T20:33:50.175Z,69.17
2023-02-16T20:36:19.117Z,62.63
2023-02-16T20:38:47.869Z,70.40
2023-02-16T20:41:17.198Z,61.47
2023-02-16T20:43:45.928Z,61.50
2023-02-16T20:46:16.324Z,62.70
2023-02-16T20:48:45.535Z,63.50
2023-02-16T20:51:15.837Z,59.37
2023-02-16T20:53:44.424Z,62.83
2023-02-16T20:56:16.245Z,63.70
2023-02-16T20:58:46.280Z,65.70
2023-02-16T21:01:17.252Z,59.60
2023-02-16T21:03:45.907Z,55.00
2023-02-16T21:06:16.565Z,60.77
2023-02-16T21:08:45.378Z,55.13
2023-02-16T21:11:14.662Z,60.87
2023-02-16T21:13:43.638Z,57.57
2023-02-16T21:16:14.510Z,59.67
2023-02-16T21:18:43.524Z,54.23
2023-02-16T21:21:15.631Z,40.03
2023-02-16T21:23:48.068Z,44.90
2023-02-16T21:26:18.219Z,46.47
2023-02-16T21:28:46.986Z,46.93
2023-02-16T21:31:18.668Z,48.70
2023-02-16T21:33:48.860Z,54.97
2023-02-16T21:36:20.038Z,52.57
2023-02-16T21:38:50.395Z,50.87
2023-02-16T21:41:26.122Z,47.53
2023-02-16T21:43:57.477Z,49.60
2023-02-16T21:46:27.489Z,50.77
2023-02-16T21:48:55.250Z,48.50
2023-02-16T21:51:29.038Z,46.17
2023-02-16T21:53:59.506Z,46.13
2023-02-16T21:56:34.479Z,46.93
2023-02-16T21:59:03.500Z,43.67
2023-02-16T22:01:33.810Z,43.63
2023-02-16T22:04:03.101Z,43.90
2023-02-16T22:06:35.399Z,45.43
2023-02-16T22:09:09.826Z,42.90
2023-02-16T22:11:39.520Z,41.50
2023-02-16T22:14:08.264Z,41.53
2023-02-16T22:16:38.583Z,42.37
2023-02-16T22:19:08.942Z,47.67
2023-02-16T22:21:42.076Z,50.10
2023-02-16T22:24:14.823Z,47.80
2023-02-16T22:26:44.423Z,39.47
2023-02-16T22:29:13.814Z,46.77
2023-02-16T22:31:45.803Z,44.73
2023-02-16T22:34:15.995Z,39.77
2023-02-16T22:36:45.889Z,39.30
2023-02-16T22:39:17.352Z,43.23
2023-02-16T22:41:46.243Z,42.27
2023-02-16T22:44:15.665Z,39.13
2023-02-16T22:46:44.600Z,39.93
2023-02-16T22:49:13.059Z,37.93
2023-02-16T22:51:41.859Z,40.17
2023-02-16T22:54:10.420Z,42.40
2023-02-16T22:56:40.607Z,41.17
2023-02-16T22:59:10.669Z,37.47
2023-02-16T23:01:39.960Z,37.53
2023-02-16T23:04:08.623Z,36.63
2023-02-16T23:06:38.792Z,42.37
2023-02-16T23:09:09.639Z,46.57
2023-02-16T23:11:38.410Z,51.67
2023-02-16T23:14:16.189Z,52.10
2023-02-16T23:16:45.739Z,50.47
2023-02-16T23:19:15.786Z,48.20
2023-02-16T23:21:45.088Z,44.60
2023-02-16T23:24:16.035Z,39.20
2023-02-16T23:26:45.097Z,40.13
2023-02-16T23:29:15.095Z,45.13
2023-02-16T23:31:46.682Z,38.07
2023-02-16T23:34:16.006Z,37.47
2023-02-16T23:36:45.133Z,41.03
2023-02-16T23:39:15.929Z,41.47
2023-02-16T23:41:45.250Z,42.80
2023-02-16T23:44:16.020Z,42.83
2023-02-16T23:46:44.776Z,48.33
2023-02-16T23:49:13.477Z,46.20
2023-02-16T23:51:42.296Z,42.37
2023-02-16T23:54:11.565Z,39.00
2023-02-16T23:56:41.280Z,43.10
2023-02-16T23:59:09.721Z,48.90
